Bearskin Lake, Canada
Current Conditions -  °F | °C
As of 6:40 PM on Saturday 25 Oct 2014 (Local Time) from CYTL Reporting Station
Light Rain Light Rain  
Wind Chill: 28°   Ceiling: 3200
Heat Index: 37°   Visibility: 9mi
Dew Point: 34°   Wind: 17mph
Humidity: 87%   Direction: 300°WNW
Pressure: 29.69"   Gusts: 31mph
Location:  53.93°N, 90.98°W
Report Text: CYTL 252340Z AUTO 30015G27KT 9SM -RA OVC032 03/01 A2969 RMK SLP064
Loading
Personal Weather Stations






























Interactive Weather Map
Tropical Storm Tracking
New forecast layout! Learn more

10-Day Weather Forecast

Advertisements
Track Severe Weather on mobile